メインページ
METAR-TAF:

METAR-TAF

空港 :

クライストチャーチ国際空港

クライストチャーチ, ニュージーランド

緯度: 43-29S, 経度: 172-33E, 海抜: 38m

現時点の気象観測

当レポートは29分前の19:30(UTC)に作成
西/南西の風 7kt
気温 12°C
湿度 88%
気圧 1015 hPa
視程10km以上

METAR: NZCH 161930Z AUTO 24007KT 9999 BKN015/// 12/10 Q1015

時間: 07:59 (19:59 UTC)

予報

当レポートは2時間57分前の17:02(UTC)に作成
予報は16日の 18時(UTC)から 18日の 00時(UTC)まで有効
西/南西の風 10kt
視程10km以上
高度1600ftの千切れ雲あり
小雨
16日の 18時(UTC)から 16日の 20時(UTC)まで徐々に
の風 8kt
16日の 18時(UTC)から 16日の 23時(UTC)まで一時的に
視程: 4000m
高度800ftの千切れ雲あり
雨, 霧雨
17日の 0200時(UTC)から
東/北東の風 10kt
視程10km以上
高度3000ftの雲は散在している
17日の 09時(UTC)から 17日の 11時(UTC)まで徐々に
の風 5kt
確率 30% :
17日の 12時(UTC)から 17日の 19時(UTC)まで一時的に
視程: 0500m
霧,

TAF: NZCH 161702Z 1618/1800 24010KT 9999 -RA BKN016 BECMG 1618/1620 17008KT TEMPO 1618/1623 4000 RADZ BKN008 FM170200 07010KT 9999 SCT030 BECMG 1709/1711 36005KT PROB30 TEMPO 1712/1719 0500 FG

4,000以上の空港の気象観測と天気予報(METAR報とTAF報)

利用可能な観測所は地図上に黄色い丸と赤い丸で示す。

丸の上にカーソルを重ねると観測所名を参照できる。

次にクリックすると気象観測と天気予報を参照できる。

マップの切り替え:黒色「×」印の緑ボタンをクリックして拡大、「-」印の緑ボタンをクリックして縮小、緑色の三角印をクリックして隣りの地図に切り替え


METAR-TAF: